ABW5927 UNKL-USSS
Flight info
| Callsign | ABW5927 |
|---|---|
| Flight time | N/A |
| Altitude | 32000 |
| Route | APRUS B800 ADONI A300 TOKMO G827 KENGA A300 KZ R244 RUBOR T448 SOPUS |
| Aircraft | B77L/H-SDE1E2E3FGHIJ2J3J4J5M1RWXY/LB1D1 |
Departure
| Time | 2026-05-05 11:44 |
|---|---|
| Airport | Krasnoyarsk International Airport (UNKL) |
Arrival
| Time | N/A |
|---|---|
| Airport | Koltsovo Airport (USSS) |
| Time | Latitude | Longitude | Altitude | Speed | Heading |
|---|---|---|---|---|---|
| 2026-05-05 10:58 | 56.18361 | 92.46372 | 955 ft | 0 kts | 20° |
| 2026-05-05 11:24 | 56.18365 | 92.46374 | 955 ft | 2 kts | 20° |
| 2026-05-05 11:24 | 56.18393 | 92.46393 | 953 ft | 5 kts | 23° |
| 2026-05-05 11:25 | 56.18410 | 92.46427 | 953 ft | 0 kts | 70° |
| 2026-05-05 11:30 | 56.18412 | 92.46438 | 955 ft | 4 kts | 75° |
| 2026-05-05 11:30 | 56.18411 | 92.46472 | 953 ft | 4 kts | 102° |
| 2026-05-05 11:31 | 56.18388 | 92.46586 | 952 ft | 4 kts | 117° |
| 2026-05-05 11:31 | 56.18368 | 92.46618 | 951 ft | 4 kts | 148° |
| 2026-05-05 11:31 | 56.18344 | 92.46642 | 952 ft | 4 kts | 146° |
| 2026-05-05 11:32 | 56.18327 | 92.46680 | 952 ft | 4 kts | 122° |
| 2026-05-05 11:32 | 56.18314 | 92.46724 | 952 ft | 4 kts | 116° |
| 2026-05-05 11:32 | 56.18303 | 92.46769 | 953 ft | 4 kts | 113° |
| 2026-05-05 11:32 | 56.18290 | 92.46814 | 952 ft | 5 kts | 123° |
| 2026-05-05 11:33 | 56.18258 | 92.46841 | 953 ft | 5 kts | 179° |
| 2026-05-05 11:33 | 56.18221 | 92.46821 | 952 ft | 6 kts | 201° |
| 2026-05-05 11:33 | 56.18183 | 92.46792 | 953 ft | 6 kts | 203° |
| 2026-05-05 11:33 | 56.18141 | 92.46783 | 951 ft | 6 kts | 168° |
| 2026-05-05 11:34 | 56.18111 | 92.46834 | 952 ft | 6 kts | 117° |
| 2026-05-05 11:34 | 56.18089 | 92.46917 | 953 ft | 9 kts | 114° |
| 2026-05-05 11:34 | 56.18063 | 92.47026 | 951 ft | 10 kts | 113° |
| 2026-05-05 11:34 | 56.18034 | 92.47147 | 952 ft | 11 kts | 113° |
| 2026-05-05 11:35 | 56.18005 | 92.47269 | 952 ft | 11 kts | 113° |
| 2026-05-05 11:35 | 56.17976 | 92.47390 | 953 ft | 11 kts | 113° |
| 2026-05-05 11:35 | 56.17947 | 92.47512 | 951 ft | 11 kts | 113° |
| 2026-05-05 11:35 | 56.17918 | 92.47634 | 951 ft | 11 kts | 113° |
| 2026-05-05 11:36 | 56.17889 | 92.47756 | 952 ft | 11 kts | 113° |
| 2026-05-05 11:36 | 56.17860 | 92.47877 | 950 ft | 11 kts | 113° |
| 2026-05-05 11:36 | 56.17832 | 92.48000 | 952 ft | 11 kts | 112° |
| 2026-05-05 11:36 | 56.17803 | 92.48122 | 951 ft | 11 kts | 112° |
| 2026-05-05 11:37 | 56.17771 | 92.48259 | 952 ft | 15 kts | 113° |
| 2026-05-05 11:37 | 56.17723 | 92.48459 | 951 ft | 18 kts | 113° |
| 2026-05-05 11:37 | 56.17673 | 92.48666 | 951 ft | 18 kts | 113° |
| 2026-05-05 11:37 | 56.17624 | 92.48874 | 951 ft | 18 kts | 113° |
| 2026-05-05 11:38 | 56.17574 | 92.49081 | 952 ft | 18 kts | 113° |
| 2026-05-05 11:38 | 56.17526 | 92.49290 | 952 ft | 18 kts | 112° |
| 2026-05-05 11:38 | 56.17476 | 92.49497 | 954 ft | 18 kts | 114° |
| 2026-05-05 11:38 | 56.17426 | 92.49705 | 953 ft | 18 kts | 113° |
| 2026-05-05 11:39 | 56.17376 | 92.49912 | 952 ft | 18 kts | 114° |
| 2026-05-05 11:39 | 56.17326 | 92.50120 | 953 ft | 18 kts | 113° |
| 2026-05-05 11:39 | 56.17276 | 92.50327 | 953 ft | 18 kts | 113° |
| 2026-05-05 11:39 | 56.17227 | 92.50534 | 951 ft | 18 kts | 113° |
| 2026-05-05 11:40 | 56.17177 | 92.50742 | 953 ft | 18 kts | 113° |
| 2026-05-05 11:40 | 56.17128 | 92.50949 | 952 ft | 18 kts | 113° |
| 2026-05-05 11:40 | 56.17078 | 92.51156 | 951 ft | 18 kts | 113° |
| 2026-05-05 11:40 | 56.17029 | 92.51363 | 952 ft | 18 kts | 113° |
| 2026-05-05 11:41 | 56.16980 | 92.51571 | 952 ft | 18 kts | 112° |
| 2026-05-05 11:41 | 56.16931 | 92.51776 | 953 ft | 18 kts | 113° |
| 2026-05-05 11:41 | 56.16878 | 92.51935 | 952 ft | 14 kts | 142° |
| 2026-05-05 11:41 | 56.16791 | 92.52003 | 953 ft | 13 kts | 159° |
| 2026-05-05 11:42 | 56.16712 | 92.52051 | 953 ft | 9 kts | 172° |
| 2026-05-05 11:42 | 56.16664 | 92.52016 | 954 ft | 7 kts | 239° |
| 2026-05-05 11:42 | 56.16670 | 92.51939 | 954 ft | 0 kts | 293° |
| 2026-05-05 11:43 | 56.16724 | 92.51712 | 955 ft | 50 kts | 293° |
| 2026-05-05 11:43 | 56.16948 | 92.50770 | 956 ft | 112 kts | 293° |
| 2026-05-05 11:43 | 56.17330 | 92.49168 | 951 ft | 163 kts | 293° |
| 2026-05-05 11:43 | 56.17782 | 92.47148 | 1162 ft | 181 kts | 290° |
| 2026-05-05 11:44 | 56.18265 | 92.45059 | 1686 ft | 183 kts | 291° |
| 2026-05-05 11:44 | 56.18791 | 92.42952 | 2251 ft | 185 kts | 292° |
| 2026-05-05 11:44 | 56.19302 | 92.40815 | 2724 ft | 190 kts | 284° |
| 2026-05-05 11:44 | 56.19241 | 92.38431 | 2877 ft | 200 kts | 250° |
| 2026-05-05 11:45 | 56.18750 | 92.35962 | 3058 ft | 221 kts | 250° |
| 2026-05-05 11:45 | 56.18230 | 92.33225 | 3359 ft | 239 kts | 251° |
| 2026-05-05 11:45 | 56.17694 | 92.30341 | 3902 ft | 248 kts | 250° |
| 2026-05-05 11:45 | 56.17152 | 92.27385 | 4639 ft | 250 kts | 251° |
| 2026-05-05 11:46 | 56.16617 | 92.24416 | 5374 ft | 252 kts | 251° |
| 2026-05-05 11:46 | 56.16078 | 92.21406 | 6064 ft | 255 kts | 251° |
| 2026-05-05 11:46 | 56.15531 | 92.18358 | 6799 ft | 257 kts | 251° |
| 2026-05-05 11:46 | 56.14984 | 92.15294 | 7535 ft | 258 kts | 252° |
| 2026-05-05 11:47 | 56.14445 | 92.12261 | 8270 ft | 260 kts | 252° |
| 2026-05-05 11:47 | 56.13895 | 92.09155 | 8956 ft | 263 kts | 252° |
| 2026-05-05 11:47 | 56.13339 | 92.06020 | 9683 ft | 264 kts | 253° |
| 2026-05-05 11:47 | 56.12782 | 92.02877 | 10326 ft | 268 kts | 253° |
| 2026-05-05 11:48 | 56.11594 | 91.96170 | 10745 ft | 309 kts | 253° |
| 2026-05-05 11:48 | 56.10919 | 91.92366 | 10916 ft | 332 kts | 253° |
| 2026-05-05 11:48 | 56.10198 | 91.88315 | 11281 ft | 348 kts | 253° |
| 2026-05-05 11:49 | 56.09450 | 91.84131 | 11872 ft | 358 kts | 253° |
| 2026-05-05 11:49 | 56.08681 | 91.79839 | 12625 ft | 364 kts | 253° |
| 2026-05-05 11:49 | 56.07902 | 91.75496 | 13434 ft | 370 kts | 253° |
| 2026-05-05 11:49 | 56.07107 | 91.71074 | 14158 ft | 376 kts | 253° |
| 2026-05-05 11:50 | 56.06300 | 91.66594 | 14924 ft | 379 kts | 253° |
| 2026-05-05 11:50 | 56.05490 | 91.62110 | 15760 ft | 380 kts | 253° |
| 2026-05-05 11:50 | 56.04674 | 91.57607 | 16555 ft | 382 kts | 254° |
| 2026-05-05 11:50 | 56.03852 | 91.53078 | 17310 ft | 385 kts | 254° |
| 2026-05-05 11:51 | 56.03020 | 91.48500 | 18037 ft | 388 kts | 255° |
| 2026-05-05 11:51 | 56.02190 | 91.43948 | 18699 ft | 392 kts | 255° |
| 2026-05-05 11:51 | 56.01341 | 91.39294 | 19326 ft | 395 kts | 255° |
| 2026-05-05 11:51 | 56.00482 | 91.34608 | 19940 ft | 399 kts | 255° |
| 2026-05-05 11:52 | 55.99625 | 91.29885 | 20544 ft | 399 kts | 257° |
| 2026-05-05 11:52 | 55.99125 | 91.24990 | 21029 ft | 402 kts | 268° |
| 2026-05-05 11:52 | 55.99141 | 91.19998 | 21622 ft | 403 kts | 276° |
| 2026-05-05 11:52 | 55.99587 | 91.15060 | 22235 ft | 403 kts | 285° |
| 2026-05-05 11:53 | 56.00341 | 91.10217 | 22813 ft | 406 kts | 286° |
| 2026-05-05 11:53 | 56.01131 | 91.05353 | 23408 ft | 409 kts | 287° |
| 2026-05-05 11:53 | 56.01930 | 91.00447 | 23967 ft | 411 kts | 287° |
| 2026-05-05 11:53 | 56.02694 | 90.95718 | 24508 ft | 412 kts | 286° |
| 2026-05-05 11:54 | 56.03480 | 90.90790 | 25098 ft | 412 kts | 286° |
| 2026-05-05 11:54 | 56.04256 | 90.85858 | 25675 ft | 413 kts | 286° |
| 2026-05-05 11:54 | 56.05032 | 90.80896 | 26088 ft | 418 kts | 286° |
| 2026-05-05 11:54 | 56.05813 | 90.75851 | 26487 ft | 422 kts | 286° |
| 2026-05-05 11:55 | 56.06593 | 90.70782 | 27031 ft | 422 kts | 286° |
| 2026-05-05 11:55 | 56.07371 | 90.65712 | 27614 ft | 422 kts | 286° |
| 2026-05-05 11:55 | 56.08147 | 90.60634 | 28110 ft | 424 kts | 285° |
| 2026-05-05 11:55 | 56.08916 | 90.55593 | 28564 ft | 426 kts | 285° |
| 2026-05-05 11:56 | 56.09690 | 90.50501 | 29236 ft | 422 kts | 285° |
| 2026-05-05 11:56 | 56.10459 | 90.45428 | 29771 ft | 422 kts | 285° |
| 2026-05-05 11:56 | 56.11226 | 90.40351 | 30230 ft | 422 kts | 285° |
| 2026-05-05 11:56 | 56.11991 | 90.35273 | 30643 ft | 421 kts | 286° |
| 2026-05-05 11:57 | 56.12751 | 90.30207 | 31058 ft | 420 kts | 286° |
| 2026-05-05 11:57 | 56.13507 | 90.25159 | 31502 ft | 419 kts | 286° |
| 2026-05-05 11:57 | 56.14258 | 90.20128 | 31943 ft | 417 kts | 286° |
| 2026-05-05 11:57 | 56.15010 | 90.15075 | 32010 ft | 421 kts | 286° |
| 2026-05-05 11:58 | 56.16507 | 90.04969 | 32026 ft | 418 kts | 285° |
| 2026-05-05 11:58 | 56.17964 | 89.95070 | 32022 ft | 415 kts | 286° |
| 2026-05-05 11:59 | 56.19426 | 89.85067 | 32028 ft | 413 kts | 285° |
| 2026-05-05 11:59 | 56.20877 | 89.75082 | 32026 ft | 413 kts | 285° |
| 2026-05-05 12:00 | 56.22318 | 89.65103 | 32026 ft | 413 kts | 285° |
| 2026-05-05 12:00 | 56.23511 | 89.56792 | 32030 ft | 413 kts | 285° |
| 2026-05-05 12:01 | 56.25175 | 89.45131 | 32030 ft | 415 kts | 285° |
| 2026-05-05 12:01 | 56.26600 | 89.35072 | 32029 ft | 415 kts | 285° |
| 2026-05-05 12:02 | 56.27781 | 89.26687 | 32029 ft | 416 kts | 285° |
| 2026-05-05 12:02 | 56.29197 | 89.16572 | 32026 ft | 417 kts | 285° |
| 2026-05-05 12:03 | 56.30606 | 89.06449 | 32019 ft | 417 kts | 285° |
| 2026-05-05 12:03 | 56.31986 | 88.96466 | 32031 ft | 417 kts | 285° |
| 2026-05-05 12:04 | 56.33030 | 88.86150 | 32024 ft | 420 kts | 277° |
| 2026-05-05 12:04 | 56.33320 | 88.75648 | 32020 ft | 420 kts | 275° |
| 2026-05-05 12:05 | 56.33594 | 88.65147 | 32027 ft | 419 kts | 276° |
| 2026-05-05 12:05 | 56.33872 | 88.54658 | 32020 ft | 419 kts | 276° |
| 2026-05-05 12:06 | 56.34146 | 88.44161 | 32028 ft | 419 kts | 276° |
| 2026-05-05 12:06 | 56.34409 | 88.33738 | 32019 ft | 419 kts | 275° |
| 2026-05-05 12:07 | 56.34663 | 88.23254 | 32018 ft | 418 kts | 276° |
| 2026-05-05 12:07 | 56.34910 | 88.12777 | 32023 ft | 418 kts | 276° |
| 2026-05-05 12:08 | 56.35148 | 88.02292 | 32013 ft | 418 kts | 276° |
| 2026-05-05 12:08 | 56.35373 | 87.91992 | 32008 ft | 418 kts | 276° |
| 2026-05-05 12:09 | 56.35592 | 87.81521 | 32012 ft | 417 kts | 276° |
| 2026-05-05 12:09 | 56.35803 | 87.71049 | 32014 ft | 418 kts | 276° |
| 2026-05-05 12:10 | 56.36005 | 87.60595 | 31997 ft | 417 kts | 276° |
| 2026-05-05 12:10 | 56.36197 | 87.50141 | 32003 ft | 417 kts | 276° |
| 2026-05-05 12:11 | 56.36382 | 87.39689 | 31995 ft | 417 kts | 276° |
| 2026-05-05 12:11 | 56.36558 | 87.29229 | 31994 ft | 417 kts | 276° |
| 2026-05-05 12:12 | 56.36723 | 87.18835 | 31984 ft | 417 kts | 276° |
| 2026-05-05 12:12 | 56.36881 | 87.08366 | 31970 ft | 416 kts | 276° |
| 2026-05-05 12:13 | 56.37027 | 86.98117 | 31971 ft | 416 kts | 276° |
| 2026-05-05 12:13 | 56.37166 | 86.87691 | 31975 ft | 415 kts | 276° |
| 2026-05-05 12:14 | 56.37297 | 86.77287 | 31987 ft | 414 kts | 276° |
| 2026-05-05 12:14 | 56.37420 | 86.66888 | 31983 ft | 414 kts | 276° |
| 2026-05-05 12:15 | 56.37533 | 86.56500 | 31979 ft | 414 kts | 276° |
| 2026-05-05 12:15 | 56.37637 | 86.46140 | 31959 ft | 412 kts | 276° |
| 2026-05-05 12:16 | 56.37732 | 86.35836 | 31962 ft | 409 kts | 276° |
| 2026-05-05 12:16 | 56.37819 | 86.25590 | 31963 ft | 408 kts | 276° |
| 2026-05-05 12:17 | 56.37898 | 86.15369 | 31962 ft | 407 kts | 276° |
| 2026-05-05 12:17 | 56.37969 | 86.05224 | 31957 ft | 407 kts | 276° |
| 2026-05-05 12:18 | 56.38034 | 85.95161 | 31936 ft | 407 kts | 276° |
| 2026-05-05 12:18 | 56.38109 | 85.84937 | 31946 ft | 407 kts | 276° |
| 2026-05-05 12:19 | 56.38180 | 85.74722 | 31951 ft | 408 kts | 276° |
| 2026-05-05 12:19 | 56.38241 | 85.64488 | 31948 ft | 408 kts | 276° |
| 2026-05-05 12:20 | 56.38292 | 85.54253 | 31953 ft | 408 kts | 276° |
| 2026-05-05 12:20 | 56.38334 | 85.44008 | 31952 ft | 408 kts | 275° |
| 2026-05-05 12:21 | 56.38369 | 85.33767 | 31942 ft | 408 kts | 275° |
| 2026-05-05 12:21 | 56.38397 | 85.23486 | 31942 ft | 410 kts | 274° |
| 2026-05-05 12:22 | 56.38422 | 85.13236 | 31941 ft | 411 kts | 275° |
| 2026-05-05 12:22 | 56.38449 | 85.02903 | 31942 ft | 412 kts | 274° |
| 2026-05-05 12:23 | 56.38469 | 84.92710 | 31943 ft | 412 kts | 274° |
| 2026-05-05 12:23 | 56.38480 | 84.82356 | 31939 ft | 412 kts | 274° |
| 2026-05-05 12:24 | 56.38481 | 84.72006 | 31942 ft | 413 kts | 274° |
| 2026-05-05 12:24 | 56.38474 | 84.61603 | 31946 ft | 415 kts | 274° |
| 2026-05-05 12:25 | 56.38458 | 84.51173 | 31950 ft | 416 kts | 274° |
| 2026-05-05 12:25 | 56.38433 | 84.40707 | 31954 ft | 417 kts | 274° |
| 2026-05-05 12:26 | 56.38400 | 84.30316 | 31946 ft | 417 kts | 273° |
| 2026-05-05 12:26 | 56.38357 | 84.19851 | 31922 ft | 417 kts | 273° |
| 2026-05-05 12:27 | 56.38306 | 84.09383 | 31931 ft | 417 kts | 273° |
| 2026-05-05 12:27 | 56.38247 | 83.99081 | 31942 ft | 417 kts | 273° |
| 2026-05-05 12:28 | 56.38179 | 83.88599 | 31940 ft | 418 kts | 273° |
| 2026-05-05 12:28 | 56.38101 | 83.78187 | 31944 ft | 418 kts | 273° |
| 2026-05-05 12:29 | 56.38015 | 83.67706 | 31944 ft | 418 kts | 273° |
| 2026-05-05 12:29 | 56.37920 | 83.57209 | 31940 ft | 418 kts | 273° |
| 2026-05-05 12:30 | 56.37816 | 83.46775 | 31942 ft | 418 kts | 273° |
| 2026-05-05 12:30 | 56.37705 | 83.36286 | 31941 ft | 418 kts | 272° |
| 2026-05-05 12:31 | 56.37584 | 83.25800 | 31943 ft | 418 kts | 272° |
| 2026-05-05 12:31 | 56.37460 | 83.15314 | 31939 ft | 418 kts | 272° |
| 2026-05-05 12:32 | 56.37332 | 83.04847 | 31927 ft | 417 kts | 272° |
| 2026-05-05 12:32 | 56.37197 | 82.94571 | 31939 ft | 416 kts | 272° |
| 2026-05-05 12:33 | 56.37051 | 82.84197 | 31947 ft | 416 kts | 272° |
| 2026-05-05 12:33 | 56.36897 | 82.73777 | 31943 ft | 416 kts | 272° |
| 2026-05-05 12:34 | 56.36734 | 82.63358 | 31942 ft | 416 kts | 272° |
| 2026-05-05 12:34 | 56.36562 | 82.52924 | 31944 ft | 416 kts | 272° |
| 2026-05-05 12:35 | 56.36382 | 82.42513 | 31939 ft | 415 kts | 271° |
| 2026-05-05 12:35 | 56.36193 | 82.32104 | 31944 ft | 415 kts | 271° |
| 2026-05-05 12:36 | 56.35997 | 82.21700 | 31942 ft | 415 kts | 271° |
| 2026-05-05 12:36 | 56.35787 | 82.11282 | 31941 ft | 416 kts | 271° |
| 2026-05-05 12:37 | 56.35561 | 82.00930 | 31943 ft | 416 kts | 271° |
| 2026-05-05 12:37 | 56.35331 | 81.90672 | 31925 ft | 416 kts | 270° |
| 2026-05-05 12:38 | 56.35090 | 81.80246 | 31939 ft | 416 kts | 270° |
| 2026-05-05 12:38 | 56.34840 | 81.69805 | 31937 ft | 417 kts | 270° |
| 2026-05-05 12:39 | 56.34585 | 81.59360 | 31930 ft | 417 kts | 270° |
| 2026-05-05 12:39 | 56.34329 | 81.48976 | 31928 ft | 417 kts | 270° |
| 2026-05-05 12:40 | 56.34062 | 81.38522 | 31929 ft | 417 kts | 270° |
| 2026-05-05 12:40 | 56.33787 | 81.28077 | 31921 ft | 417 kts | 270° |
| 2026-05-05 12:41 | 56.33503 | 81.17623 | 31927 ft | 417 kts | 270° |
| 2026-05-05 12:41 | 56.33210 | 81.07182 | 31923 ft | 417 kts | 270° |
| 2026-05-05 12:42 | 56.32913 | 80.96904 | 31924 ft | 418 kts | 270° |
| 2026-05-05 12:42 | 56.32602 | 80.86439 | 31924 ft | 418 kts | 269° |
| 2026-05-05 12:43 | 56.32285 | 80.75996 | 31900 ft | 418 kts | 269° |
| 2026-05-05 12:43 | 56.32141 | 80.65545 | 31919 ft | 416 kts | 273° |
| 2026-05-05 12:44 | 56.32318 | 80.55107 | 31921 ft | 417 kts | 274° |
| 2026-05-05 12:44 | 56.32489 | 80.44660 | 31919 ft | 417 kts | 273° |
| 2026-05-05 12:45 | 56.32643 | 80.34244 | 31922 ft | 418 kts | 273° |
| 2026-05-05 12:45 | 56.32784 | 80.23766 | 31924 ft | 418 kts | 273° |
| 2026-05-05 12:46 | 56.32916 | 80.13298 | 31916 ft | 418 kts | 272° |
| 2026-05-05 12:46 | 56.33037 | 80.02874 | 31916 ft | 418 kts | 272° |
| 2026-05-05 12:47 | 56.33149 | 79.92543 | 31911 ft | 418 kts | 272° |
| 2026-05-05 12:47 | 56.33255 | 79.82051 | 31922 ft | 418 kts | 272° |
| 2026-05-05 12:48 | 56.33351 | 79.71559 | 31908 ft | 418 kts | 272° |
| 2026-05-05 12:48 | 56.33438 | 79.61079 | 31915 ft | 418 kts | 272° |
| 2026-05-05 12:49 | 56.33516 | 79.50675 | 31915 ft | 417 kts | 272° |
| 2026-05-05 12:49 | 56.33586 | 79.40203 | 31915 ft | 417 kts | 272° |
| 2026-05-05 12:50 | 56.33637 | 79.31518 | 31922 ft | 416 kts | 272° |
| 2026-05-05 12:50 | 56.33690 | 79.21080 | 31920 ft | 416 kts | 272° |
| 2026-05-05 12:51 | 56.33735 | 79.10652 | 31916 ft | 416 kts | 271° |
| 2026-05-05 12:51 | 56.33771 | 79.00209 | 31918 ft | 416 kts | 271° |
| 2026-05-05 12:52 | 56.33798 | 78.89953 | 31927 ft | 416 kts | 271° |
| 2026-05-05 12:52 | 56.33816 | 78.79541 | 31936 ft | 415 kts | 271° |
| 2026-05-05 12:53 | 56.33826 | 78.69194 | 31910 ft | 415 kts | 271° |
| 2026-05-05 12:53 | 56.33827 | 78.58792 | 31911 ft | 414 kts | 271° |
| 2026-05-05 12:54 | 56.33815 | 78.43250 | 31915 ft | 413 kts | 270° |
| 2026-05-05 12:55 | 56.33993 | 78.32929 | 31922 ft | 412 kts | 276° |
| 2026-05-05 12:55 | 56.34807 | 78.22700 | 31925 ft | 412 kts | 277° |
| 2026-05-05 12:56 | 56.35613 | 78.12530 | 31917 ft | 412 kts | 277° |
| 2026-05-05 12:56 | 56.36406 | 78.02278 | 31921 ft | 413 kts | 277° |
| 2026-05-05 12:57 | 56.37176 | 77.92175 | 31912 ft | 413 kts | 277° |
| 2026-05-05 12:57 | 56.37950 | 77.81904 | 31912 ft | 413 kts | 277° |
| 2026-05-05 12:58 | 56.38717 | 77.71618 | 31917 ft | 413 kts | 277° |
| 2026-05-05 12:58 | 56.39478 | 77.61322 | 31914 ft | 413 kts | 277° |
| 2026-05-05 12:59 | 56.40227 | 77.51040 | 31914 ft | 413 kts | 277° |
| 2026-05-05 12:59 | 56.40984 | 77.40825 | 31918 ft | 413 kts | 277° |
| 2026-05-05 13:00 | 56.42132 | 77.25375 | 31913 ft | 413 kts | 277° |
| 2026-05-05 13:01 | 56.43626 | 77.04777 | 31945 ft | 413 kts | 276° |
| 2026-05-05 13:01 | 56.44348 | 76.94634 | 31914 ft | 413 kts | 276° |
| 2026-05-05 13:02 | 56.45066 | 76.84419 | 31905 ft | 412 kts | 276° |
| 2026-05-05 13:02 | 56.45780 | 76.74142 | 31899 ft | 410 kts | 276° |
| 2026-05-05 13:03 | 56.46482 | 76.63913 | 31903 ft | 410 kts | 276° |
| 2026-05-05 13:03 | 56.47176 | 76.53675 | 31894 ft | 410 kts | 275° |
| 2026-05-05 13:04 | 56.47858 | 76.43481 | 31912 ft | 411 kts | 275° |
| 2026-05-05 13:04 | 56.48537 | 76.33194 | 31900 ft | 412 kts | 275° |
| 2026-05-05 13:05 | 56.49210 | 76.22884 | 31902 ft | 413 kts | 275° |
| 2026-05-05 13:05 | 56.49875 | 76.12552 | 31896 ft | 413 kts | 275° |
| 2026-05-05 13:06 | 56.50532 | 76.02217 | 31897 ft | 413 kts | 275° |
| 2026-05-05 13:06 | 56.51169 | 75.92044 | 31899 ft | 413 kts | 275° |
| 2026-05-05 13:07 | 56.51809 | 75.81703 | 31898 ft | 413 kts | 274° |
| 2026-05-05 13:07 | 56.52436 | 75.71418 | 31898 ft | 413 kts | 274° |
| 2026-05-05 13:08 | 56.53058 | 75.61076 | 31902 ft | 413 kts | 274° |
| 2026-05-05 13:08 | 56.53672 | 75.50723 | 31930 ft | 413 kts | 274° |
| 2026-05-05 13:09 | 56.54277 | 75.40371 | 31905 ft | 412 kts | 274° |
| 2026-05-05 13:09 | 56.54872 | 75.30037 | 31898 ft | 412 kts | 273° |
| 2026-05-05 13:10 | 56.55454 | 75.19793 | 31899 ft | 411 kts | 273° |
| 2026-05-05 13:10 | 56.56031 | 75.09466 | 31900 ft | 411 kts | 273° |
| 2026-05-05 13:11 | 56.56589 | 74.99313 | 31897 ft | 411 kts | 273° |
| 2026-05-05 13:11 | 56.57149 | 74.88987 | 31893 ft | 411 kts | 273° |
| 2026-05-05 13:12 | 56.57701 | 74.78649 | 31892 ft | 412 kts | 273° |
| 2026-05-05 13:12 | 56.58245 | 74.68298 | 31891 ft | 412 kts | 272° |
| 2026-05-05 13:13 | 56.58780 | 74.57933 | 31891 ft | 413 kts | 272° |
| 2026-05-05 13:13 | 56.59308 | 74.47556 | 31885 ft | 413 kts | 272° |
| 2026-05-05 13:14 | 56.59828 | 74.37167 | 31884 ft | 413 kts | 272° |
| 2026-05-05 13:14 | 56.60338 | 74.26775 | 31880 ft | 413 kts | 272° |
| 2026-05-05 13:15 | 56.60837 | 74.16447 | 31880 ft | 413 kts | 272° |
| 2026-05-05 13:15 | 56.61332 | 74.06025 | 31878 ft | 415 kts | 271° |
| 2026-05-05 13:16 | 56.61812 | 73.95733 | 31926 ft | 416 kts | 271° |
| 2026-05-05 13:16 | 56.62292 | 73.85247 | 31884 ft | 417 kts | 271° |
| 2026-05-05 13:17 | 56.62766 | 73.74736 | 31866 ft | 417 kts | 271° |
| 2026-05-05 13:17 | 56.63228 | 73.64234 | 31870 ft | 417 kts | 270° |
| 2026-05-05 13:18 | 56.63679 | 73.53735 | 31869 ft | 416 kts | 270° |
| 2026-05-05 13:18 | 56.64122 | 73.43247 | 31865 ft | 417 kts | 270° |
| 2026-05-05 13:19 | 56.64553 | 73.32811 | 31862 ft | 417 kts | 270° |
| 2026-05-05 13:19 | 56.64981 | 73.22280 | 31854 ft | 418 kts | 270° |
| 2026-05-05 13:20 | 56.65400 | 73.11737 | 31859 ft | 418 kts | 270° |
| 2026-05-05 13:20 | 56.65810 | 73.01200 | 31858 ft | 418 kts | 270° |
| 2026-05-05 13:21 | 56.66204 | 72.90827 | 31861 ft | 419 kts | 270° |
| 2026-05-05 13:21 | 56.66597 | 72.80247 | 31855 ft | 419 kts | 270° |
| 2026-05-05 13:22 | 56.66982 | 72.69651 | 31846 ft | 420 kts | 270° |
| 2026-05-05 13:22 | 56.67357 | 72.59067 | 31846 ft | 419 kts | 270° |
| 2026-05-05 13:23 | 56.67724 | 72.48472 | 31841 ft | 419 kts | 269° |
| 2026-05-05 13:23 | 56.68079 | 72.37956 | 31885 ft | 420 kts | 269° |
| 2026-05-05 13:24 | 56.68429 | 72.27306 | 31858 ft | 422 kts | 269° |
| 2026-05-05 13:24 | 56.68771 | 72.16631 | 31856 ft | 424 kts | 269° |
| 2026-05-05 13:25 | 56.69105 | 72.05902 | 31850 ft | 425 kts | 269° |
| 2026-05-05 13:25 | 56.69427 | 71.95312 | 31837 ft | 426 kts | 269° |
| 2026-05-05 13:26 | 56.69745 | 71.84536 | 31846 ft | 427 kts | 269° |
| 2026-05-05 13:26 | 56.70054 | 71.73738 | 31832 ft | 427 kts | 269° |
| 2026-05-05 13:27 | 56.70353 | 71.62947 | 31850 ft | 426 kts | 269° |
| 2026-05-05 13:27 | 56.70641 | 71.52245 | 31833 ft | 426 kts | 268° |
| 2026-05-05 13:28 | 56.70920 | 71.41490 | 31831 ft | 425 kts | 268° |
| 2026-05-05 13:28 | 56.71191 | 71.30724 | 31845 ft | 425 kts | 268° |
| 2026-05-05 13:29 | 56.71451 | 71.19987 | 31826 ft | 424 kts | 268° |
| 2026-05-05 13:29 | 56.71703 | 71.09248 | 31835 ft | 424 kts | 268° |
| 2026-05-05 13:30 | 56.71940 | 70.98679 | 31836 ft | 426 kts | 268° |
| 2026-05-05 13:30 | 56.72175 | 70.87864 | 31842 ft | 428 kts | 268° |
| 2026-05-05 13:31 | 56.72399 | 70.77022 | 31844 ft | 437 kts | 268° |
| 2026-05-05 13:31 | 56.72621 | 70.65872 | 31834 ft | 441 kts | 269° |
| 2026-05-05 13:32 | 56.72836 | 70.54713 | 31831 ft | 440 kts | 268° |
| 2026-05-05 13:32 | 56.73039 | 70.43578 | 31842 ft | 440 kts | 268° |
| 2026-05-05 13:33 | 56.73233 | 70.32437 | 31842 ft | 441 kts | 269° |
| 2026-05-05 13:33 | 56.73552 | 70.21232 | 31846 ft | 445 kts | 273° |
| 2026-05-05 13:34 | 56.74699 | 70.10066 | 31840 ft | 450 kts | 278° |
| 2026-05-05 13:34 | 56.75952 | 69.99061 | 31847 ft | 451 kts | 278° |
| 2026-05-05 13:35 | 56.77196 | 69.87917 | 31849 ft | 451 kts | 277° |
| 2026-05-05 13:35 | 56.78422 | 69.76705 | 31846 ft | 451 kts | 277° |
| 2026-05-05 13:36 | 56.79634 | 69.65475 | 31859 ft | 451 kts | 278° |
| 2026-05-05 13:36 | 56.80840 | 69.54207 | 31865 ft | 454 kts | 278° |
| 2026-05-05 13:37 | 56.81841 | 69.44772 | 31873 ft | 456 kts | 278° |
| 2026-05-05 13:37 | 56.83237 | 69.31494 | 31858 ft | 459 kts | 278° |
| 2026-05-05 13:38 | 56.84433 | 69.20010 | 31870 ft | 461 kts | 278° |
| 2026-05-05 13:38 | 56.85428 | 69.10371 | 31864 ft | 461 kts | 278° |
| 2026-05-05 13:39 | 56.86589 | 68.99033 | 31868 ft | 460 kts | 278° |
| 2026-05-05 13:39 | 56.87748 | 68.87598 | 31873 ft | 461 kts | 278° |